sensor_id;sensor_type;location;lat;lon;timestamp;pressure;altitude;pressure_sealevel;temperature;humidity
60589;BME280;46421;48.610;9.334;2023-01-30T00:00:22;98674.25;;;-1.76;87.81
60589;BME280;46421;48.610;9.334;2023-01-30T00:02:47;98668.59;;;-1.68;87.72
60589;BME280;46421;48.610;9.334;2023-01-30T00:05:12;98664.16;;;-1.66;86.47
60589;BME280;46421;48.610;9.334;2023-01-30T00:07:38;98672.31;;;-1.72;86.95
60589;BME280;46421;48.610;9.334;2023-01-30T00:10:03;98677.88;;;-1.63;86.87
60589;BME280;46421;48.610;9.334;2023-01-30T00:12:29;98660.19;;;-1.73;86.37
60589;BME280;46421;48.610;9.334;2023-01-30T00:14:54;98670.63;;;-1.73;85.72
60589;BME280;46421;48.610;9.334;2023-01-30T00:17:20;98657.66;;;-1.91;87.25
60589;BME280;46421;48.610;9.334;2023-01-30T00:19:45;98649.50;;;-1.85;87.02
60589;BME280;46421;48.610;9.334;2023-01-30T00:22:10;98660.34;;;-1.77;86.76
60589;BME280;46421;48.610;9.334;2023-01-30T00:24:36;98648.84;;;-1.72;86.13
60589;BME280;46421;48.610;9.334;2023-01-30T00:27:01;98646.81;;;-1.67;86.39
60589;BME280;46421;48.610;9.334;2023-01-30T00:29:26;98636.41;;;-1.67;85.96
60589;BME280;46421;48.610;9.334;2023-01-30T00:31:52;98630.41;;;-1.69;85.44
60589;BME280;46421;48.610;9.334;2023-01-30T00:34:17;98628.06;;;-1.74;86.38
60589;BME280;46421;48.610;9.334;2023-01-30T00:36:43;98636.91;;;-1.77;86.45
60589;BME280;46421;48.610;9.334;2023-01-30T00:39:08;98626.66;;;-1.80;85.27
60589;BME280;46421;48.610;9.334;2023-01-30T00:41:33;98614.69;;;-1.84;85.77
60589;BME280;46421;48.610;9.334;2023-01-30T00:44:17;98607.06;;;-1.87;86.09
60589;BME280;46421;48.610;9.334;2023-01-30T00:47:02;98609.50;;;-1.84;85.79
60589;BME280;46421;48.610;9.334;2023-01-30T00:49:31;98624.53;;;-1.73;85.86
60589;BME280;46421;48.610;9.334;2023-01-30T00:51:57;98611.50;;;-1.73;86.38
60589;BME280;46421;48.610;9.334;2023-01-30T00:54:22;98604.63;;;-1.90;85.88
60589;BME280;46421;48.610;9.334;2023-01-30T00:56:47;98599.66;;;-1.95;85.57
60589;BME280;46421;48.610;9.334;2023-01-30T00:59:13;98617.97;;;-1.80;86.40
60589;BME280;46421;48.610;9.334;2023-01-30T01:01:39;98615.13;;;-1.76;85.63
60589;BME280;46421;48.610;9.334;2023-01-30T01:04:05;98621.69;;;-1.84;85.31
60589;BME280;46421;48.610;9.334;2023-01-30T01:06:31;98597.53;;;-2.04;85.46
60589;BME280;46421;48.610;9.334;2023-01-30T01:08:56;98624.03;;;-1.96;85.97
60589;BME280;46421;48.610;9.334;2023-01-30T01:11:21;98630.75;;;-1.76;85.86
60589;BME280;46421;48.610;9.334;2023-01-30T01:13:54;98628.81;;;-1.72;84.81
60589;BME280;46421;48.610;9.334;2023-01-30T01:16:20;98637.75;;;-1.76;83.87
60589;BME280;46421;48.610;9.334;2023-01-30T01:18:46;98647.75;;;-1.84;85.49
60589;BME280;46421;48.610;9.334;2023-01-30T01:21:12;98654.81;;;-1.54;84.91
60589;BME280;46421;48.610;9.334;2023-01-30T01:23:38;98650.28;;;-1.51;84.67
60589;BME280;46421;48.610;9.334;2023-01-30T01:26:03;98674.47;;;-1.33;84.63
60589;BME280;46421;48.610;9.334;2023-01-30T01:28:29;98683.59;;;-1.56;85.60
60589;BME280;46421;48.610;9.334;2023-01-30T01:30:57;98703.09;;;-1.15;84.99
60589;BME280;46421;48.610;9.334;2023-01-30T01:33:26;98689.38;;;-1.19;83.95
60589;BME280;46421;48.610;9.334;2023-01-30T01:35:56;98686.53;;;-1.46;84.82
60589;BME280;46421;48.610;9.334;2023-01-30T01:38:21;98700.97;;;-1.24;85.75
60589;BME280;46421;48.610;9.334;2023-01-30T01:40:47;98702.94;;;-1.28;83.93
60589;BME280;46421;48.610;9.334;2023-01-30T01:44:22;98712.34;;;-1.25;84.38
60589;BME280;46421;48.610;9.334;2023-01-30T01:46:25;98711.47;;;-1.74;85.29
60589;BME280;46421;48.610;9.334;2023-01-30T01:48:55;98712.44;;;-1.59;85.51
60589;BME280;46421;48.610;9.334;2023-01-30T01:51:46;98711.47;;;-1.74;84.43
60589;BME280;46421;48.610;9.334;2023-01-30T01:54:17;98701.66;;;-1.53;83.98
60589;BME280;46421;48.610;9.334;2023-01-30T01:56:45;98692.25;;;-1.71;83.73
60589;BME280;46421;48.610;9.334;2023-01-30T02:01:49;98691.63;;;-1.77;83.75
60589;BME280;46421;48.610;9.334;2023-01-30T02:04:15;98678.53;;;-1.59;83.16
60589;BME280;46421;48.610;9.334;2023-01-30T02:07:01;98687.19;;;-1.75;84.12
60589;BME280;46421;48.610;9.334;2023-01-30T02:09:26;98682.72;;;-1.56;84.36
60589;BME280;46421;48.610;9.334;2023-01-30T02:11:56;98689.63;;;-1.55;83.69
60589;BME280;46421;48.610;9.334;2023-01-30T02:14:24;98681.63;;;-1.68;86.65
60589;BME280;46421;48.610;9.334;2023-01-30T02:16:50;98688.28;;;-1.31;84.71
60589;BME280;46421;48.610;9.334;2023-01-30T02:19:23;98696.44;;;-1.21;82.43
60589;BME280;46421;48.610;9.334;2023-01-30T02:24:55;98686.09;;;-1.70;84.50
60589;BME280;46421;48.610;9.334;2023-01-30T02:27:37;98687.19;;;-1.75;84.84
60589;BME280;46421;48.610;9.334;2023-01-30T02:33:26;98709.53;;;-1.06;82.75
60589;BME280;46421;48.610;9.334;2023-01-30T02:36:14;98684.50;;;-1.73;84.37
60589;BME280;46421;48.610;9.334;2023-01-30T02:38:48;98683.91;;;-1.78;86.84
60589;BME280;46421;48.610;9.334;2023-01-30T02:41:42;98689.97;;;-1.46;85.84
60589;BME280;46421;48.610;9.334;2023-01-30T02:44:24;98691.91;;;-1.33;84.49
60589;BME280;46421;48.610;9.334;2023-01-30T02:47:02;98670.88;;;-1.78;83.95
60589;BME280;46421;48.610;9.334;2023-01-30T02:49:38;98654.53;;;-1.98;85.63
60589;BME280;46421;48.610;9.334;2023-01-30T02:52:05;98651.63;;;-1.92;84.26
60589;BME280;46421;48.610;9.334;2023-01-30T02:54:33;98656.66;;;-1.88;84.96
60589;BME280;46421;48.610;9.334;2023-01-30T02:56:59;98678.88;;;-1.65;84.55
60589;BME280;46421;48.610;9.334;2023-01-30T02:59:38;98668.13;;;-2.09;85.14
60589;BME280;46421;48.610;9.334;2023-01-30T03:07:34;98648.19;;;-2.26;86.77
60589;BME280;46421;48.610;9.334;2023-01-30T03:10:11;98661.75;;;-2.19;86.44
60589;BME280;46421;48.610;9.334;2023-01-30T03:12:50;98661.41;;;-2.13;85.36
60589;BME280;46421;48.610;9.334;2023-01-30T03:15:24;98686.38;;;-2.09;84.44
60589;BME280;46421;48.610;9.334;2023-01-30T03:17:53;98698.78;;;-1.96;87.39
60589;BME280;46421;48.610;9.334;2023-01-30T03:20:19;98669.19;;;-1.95;83.92
60589;BME280;46421;48.610;9.334;2023-01-30T03:22:45;98647.81;;;-2.18;83.44
60589;BME280;46421;48.610;9.334;2023-01-30T03:25:18;98653.41;;;-2.26;85.62
60589;BME280;46421;48.610;9.334;2023-01-30T03:27:45;98648.06;;;-2.40;85.01
60589;BME280;46421;48.610;9.334;2023-01-30T03:30:11;98619.94;;;-2.67;85.48
60589;BME280;46421;48.610;9.334;2023-01-30T03:32:36;98649.41;;;-2.49;86.01
60589;BME280;46421;48.610;9.334;2023-01-30T03:35:02;98648.78;;;-2.54;86.32
60589;BME280;46421;48.610;9.334;2023-01-30T03:37:27;98618.66;;;-2.76;86.67
60589;BME280;46421;48.610;9.334;2023-01-30T03:39:52;98605.31;;;-2.70;86.75
60589;BME280;46421;48.610;9.334;2023-01-30T03:42:18;98578.03;;;-2.62;87.51
60589;BME280;46421;48.610;9.334;2023-01-30T03:44:43;98548.59;;;-2.63;86.77
60589;BME280;46421;48.610;9.334;2023-01-30T03:47:08;98515.25;;;-2.56;87.51
60589;BME280;46421;48.610;9.334;2023-01-30T03:49:34;98501.16;;;-2.36;85.67
60589;BME280;46421;48.610;9.334;2023-01-30T03:51:59;98546.03;;;-2.15;86.38
60589;BME280;46421;48.610;9.334;2023-01-30T03:54:24;98565.19;;;-2.00;84.34
60589;BME280;46421;48.610;9.334;2023-01-30T03:56:50;98565.84;;;-1.80;84.45
60589;BME280;46421;48.610;9.334;2023-01-30T03:59:15;98577.09;;;-1.64;82.85
60589;BME280;46421;48.610;9.334;2023-01-30T04:01:40;98570.03;;;-1.62;81.94
60589;BME280;46421;48.610;9.334;2023-01-30T04:04:06;98568.63;;;-1.67;81.84
60589;BME280;46421;48.610;9.334;2023-01-30T04:06:31;98553.31;;;-1.89;82.91
60589;BME280;46421;48.610;9.334;2023-01-30T04:08:56;98560.72;;;-1.98;83.37
60589;BME280;46421;48.610;9.334;2023-01-30T04:11:22;98568.22;;;-2.08;84.08
60589;BME280;46421;48.610;9.334;2023-01-30T04:13:47;98562.31;;;-2.11;84.89
60589;BME280;46421;48.610;9.334;2023-01-30T04:16:21;98551.47;;;-2.19;85.39
60589;BME280;46421;48.610;9.334;2023-01-30T04:18:47;98548.47;;;-2.12;84.86
60589;BME280;46421;48.610;9.334;2023-01-30T04:21:13;98541.66;;;-2.14;85.69
60589;BME280;46421;48.610;9.334;2023-01-30T04:23:39;98552.47;;;-2.06;85.88
60589;BME280;46421;48.610;9.334;2023-01-30T04:26:05;98559.13;;;-2.00;86.21
60589;BME280;46421;48.610;9.334;2023-01-30T04:28:31;98548.19;;;-1.91;85.89
60589;BME280;46421;48.610;9.334;2023-01-30T04:30:57;98564.16;;;-1.81;85.30
60589;BME280;46421;48.610;9.334;2023-01-30T04:33:22;98572.22;;;-1.86;84.83
60589;BME280;46421;48.610;9.334;2023-01-30T04:35:55;98575.78;;;-1.87;84.96
60589;BME280;46421;48.610;9.334;2023-01-30T04:38:21;98560.72;;;-1.98;84.80
60589;BME280;46421;48.610;9.334;2023-01-30T04:40:50;98565.38;;;-1.87;84.97
60589;BME280;46421;48.610;9.334;2023-01-30T04:43:17;98565.94;;;-1.82;85.92
60589;BME280;46421;48.610;9.334;2023-01-30T04:45:43;98570.56;;;-1.71;84.32
60589;BME280;46421;48.610;9.334;2023-01-30T04:48:09;98568.63;;;-1.67;85.15
60589;BME280;46421;48.610;9.334;2023-01-30T04:50:34;98570.09;;;-1.63;84.86
60589;BME280;46421;48.610;9.334;2023-01-30T04:53:00;98545.31;;;-1.70;84.28
60589;BME280;46421;48.610;9.334;2023-01-30T04:55:25;98547.91;;;-1.70;84.49
60589;BME280;46421;48.610;9.334;2023-01-30T04:57:50;98544.47;;;-1.71;85.02
60589;BME280;46421;48.610;9.334;2023-01-30T05:00:16;98563.97;;;-1.62;84.19
60589;BME280;46421;48.610;9.334;2023-01-30T05:02:41;98564.56;;;-1.57;85.00
60589;BME280;46421;48.610;9.334;2023-01-30T05:05:07;98577.16;;;-1.49;84.72
60589;BME280;46421;48.610;9.334;2023-01-30T05:07:32;98565.44;;;-1.42;84.21
60589;BME280;46421;48.610;9.334;2023-01-30T05:09:58;98559.13;;;-1.38;83.70
60589;BME280;46421;48.610;9.334;2023-01-30T05:12:23;98560.88;;;-1.38;84.12
60589;BME280;46421;48.610;9.334;2023-01-30T05:14:49;98564.53;;;-1.41;83.87
60589;BME280;46421;48.610;9.334;2023-01-30T05:17:14;98567.03;;;-1.39;84.34
60589;BME280;46421;48.610;9.334;2023-01-30T05:19:39;98567.78;;;-1.37;83.49
60589;BME280;46421;48.610;9.334;2023-01-30T05:22:05;98562.78;;;-1.40;83.97
60589;BME280;46421;48.610;9.334;2023-01-30T05:24:30;98566.31;;;-1.41;83.32
60589;BME280;46421;48.610;9.334;2023-01-30T05:26:55;98549.06;;;-1.44;84.02
60589;BME280;46421;48.610;9.334;2023-01-30T05:29:21;98541.25;;;-1.44;83.76
60589;BME280;46421;48.610;9.334;2023-01-30T05:31:46;98545.44;;;-1.41;83.56
60589;BME280;46421;48.610;9.334;2023-01-30T05:34:12;98528.09;;;-1.42;82.20
60589;BME280;46421;48.610;9.334;2023-01-30T05:36:37;98532.84;;;-1.35;83.28
60589;BME280;46421;48.610;9.334;2023-01-30T05:39:02;98519.34;;;-1.41;82.67
60589;BME280;46421;48.610;9.334;2023-01-30T05:41:28;98523.44;;;-1.37;83.03
60589;BME280;46421;48.610;9.334;2023-01-30T05:43:53;98513.69;;;-1.34;82.64
60589;BME280;46421;48.610;9.334;2023-01-30T05:46:19;98505.94;;;-1.35;82.84
60589;BME280;46421;48.610;9.334;2023-01-30T05:48:44;98510.91;;;-1.31;81.69
60589;BME280;46421;48.610;9.334;2023-01-30T05:51:21;98506.16;;;-1.24;82.22
60589;BME280;46421;48.610;9.334;2023-01-30T05:53:47;98506.53;;;-1.16;81.22
60589;BME280;46421;48.610;9.334;2023-01-30T05:56:13;98505.72;;;-1.16;81.35
60589;BME280;46421;48.610;9.334;2023-01-30T05:58:38;98502.72;;;-1.24;80.12
60589;BME280;46421;48.610;9.334;2023-01-30T06:01:06;98498.03;;;-1.19;79.96
60589;BME280;46421;48.610;9.334;2023-01-30T06:03:34;98504.19;;;-1.20;79.52
60589;BME280;46421;48.610;9.334;2023-01-30T06:06:03;98505.88;;;-1.19;79.30
60589;BME280;46421;48.610;9.334;2023-01-30T06:08:30;98519.13;;;-1.08;79.84
60589;BME280;46421;48.610;9.334;2023-01-30T06:11:15;98515.13;;;-1.14;78.53
60589;BME280;46421;48.610;9.334;2023-01-30T06:13:41;98522.13;;;-1.14;79.48
60589;BME280;46421;48.610;9.334;2023-01-30T06:16:09;98514.34;;;-1.16;78.46
60589;BME280;46421;48.610;9.334;2023-01-30T06:18:36;98523.22;;;-1.04;78.18
60589;BME280;46421;48.610;9.334;2023-01-30T06:21:02;98511.97;;;-1.04;76.91
60589;BME280;46421;48.610;9.334;2023-01-30T06:23:28;98513.16;;;-1.10;76.69
60589;BME280;46421;48.610;9.334;2023-01-30T06:25:53;98497.50;;;-1.10;76.98
60589;BME280;46421;48.610;9.334;2023-01-30T06:28:20;98507.50;;;-1.02;76.25
60589;BME280;46421;48.610;9.334;2023-01-30T06:30:47;98488.66;;;-1.07;75.53
60589;BME280;46421;48.610;9.334;2023-01-30T06:33:13;98494.78;;;-1.08;76.07
60589;BME280;46421;48.610;9.334;2023-01-30T06:35:40;98500.00;;;-1.08;74.71
60589;BME280;46421;48.610;9.334;2023-01-30T06:38:06;98494.47;;;-1.02;76.13
60589;BME280;46421;48.610;9.334;2023-01-30T06:40:40;98496.84;;;-0.99;74.19
60589;BME280;46421;48.610;9.334;2023-01-30T06:43:06;98490.25;;;-0.90;73.01
60589;BME280;46421;48.610;9.334;2023-01-30T06:45:31;98492.59;;;-0.86;73.57
60589;BME280;46421;48.610;9.334;2023-01-30T06:47:57;98482.88;;;-0.84;72.89
60589;BME280;46421;48.610;9.334;2023-01-30T06:50:25;98483.09;;;-0.87;72.63
60589;BME280;46421;48.610;9.334;2023-01-30T06:52:51;98485.59;;;-0.85;71.77
60589;BME280;46421;48.610;9.334;2023-01-30T06:55:19;98477.09;;;-0.74;71.99
60589;BME280;46421;48.610;9.334;2023-01-30T06:57:45;98476.44;;;-0.78;72.41
60589;BME280;46421;48.610;9.334;2023-01-30T07:00:14;98488.09;;;-0.69;72.19
60589;BME280;46421;48.610;9.334;2023-01-30T07:02:40;98468.63;;;-0.78;71.49
60589;BME280;46421;48.610;9.334;2023-01-30T07:05:07;98466.00;;;-0.64;70.59
60589;BME280;46421;48.610;9.334;2023-01-30T07:07:33;98474.03;;;-0.67;71.41
60589;BME280;46421;48.610;9.334;2023-01-30T07:09:59;98455.94;;;-0.70;70.65
60589;BME280;46421;48.610;9.334;2023-01-30T07:12:25;98458.66;;;-0.71;71.30
60589;BME280;46421;48.610;9.334;2023-01-30T07:14:52;98459.19;;;-0.66;70.52
60589;BME280;46421;48.610;9.334;2023-01-30T07:17:18;98458.66;;;-0.71;70.50
60589;BME280;46421;48.610;9.334;2023-01-30T07:19:44;98469.00;;;-0.70;69.08
60589;BME280;46421;48.610;9.334;2023-01-30T07:22:10;98481.38;;;-0.59;69.30
60589;BME280;46421;48.610;9.334;2023-01-30T07:24:36;98475.97;;;-0.56;69.16
60589;BME280;46421;48.610;9.334;2023-01-30T07:27:02;98489.00;;;-0.41;69.16
60589;BME280;46421;48.610;9.334;2023-01-30T07:29:27;98497.38;;;-0.36;69.66
60589;BME280;46421;48.610;9.334;2023-01-30T07:31:53;98494.22;;;-0.41;69.31
60589;BME280;46421;48.610;9.334;2023-01-30T07:34:18;98505.47;;;-0.26;69.96
60589;BME280;46421;48.610;9.334;2023-01-30T07:36:44;98505.41;;;-0.25;70.15
60589;BME280;46421;48.610;9.334;2023-01-30T07:39:09;98504.22;;;-0.06;69.72
60589;BME280;46421;48.610;9.334;2023-01-30T07:41:35;98506.47;;;-0.14;68.81
60589;BME280;46421;48.610;9.334;2023-01-30T07:44:01;98505.16;;;-0.07;68.77
60589;BME280;46421;48.610;9.334;2023-01-30T07:46:26;98508.72;;;-0.08;69.17
60589;BME280;46421;48.610;9.334;2023-01-30T07:49:01;98512.34;;;-0.11;69.85
60589;BME280;46421;48.610;9.334;2023-01-30T07:51:27;98508.88;;;0.03;70.07
60589;BME280;46421;48.610;9.334;2023-01-30T07:53:52;98521.34;;;0.12;69.12
60589;BME280;46421;48.610;9.334;2023-01-30T07:56:18;98517.47;;;0.05;68.83
60589;BME280;46421;48.610;9.334;2023-01-30T07:58:46;98512.53;;;0.01;70.57
60589;BME280;46421;48.610;9.334;2023-01-30T08:01:12;98515.84;;;0.17;68.76
60589;BME280;46421;48.610;9.334;2023-01-30T08:03:37;98522.81;;;0.17;69.58
60589;BME280;46421;48.610;9.334;2023-01-30T08:06:02;98513.91;;;0.06;69.80
60589;BME280;46421;48.610;9.334;2023-01-30T08:08:28;98494.69;;;0.07;69.58
60589;BME280;46421;48.610;9.334;2023-01-30T08:10:53;98489.97;;;0.12;69.68
60589;BME280;46421;48.610;9.334;2023-01-30T08:13:19;98492.06;;;0.20;69.40
60589;BME280;46421;48.610;9.334;2023-01-30T08:15:44;98491.59;;;0.28;70.04
60589;BME280;46421;48.610;9.334;2023-01-30T08:18:09;98486.19;;;0.31;68.91
60589;BME280;46421;48.610;9.334;2023-01-30T08:20:35;98492.69;;;0.38;70.92
60589;BME280;46421;48.610;9.334;2023-01-30T08:23:01;98489.72;;;0.30;70.47
60589;BME280;46421;48.610;9.334;2023-01-30T08:25:27;98512.44;;;0.42;69.87
60589;BME280;46421;48.610;9.334;2023-01-30T08:27:53;98527.53;;;0.52;69.67
60589;BME280;46421;48.610;9.334;2023-01-30T08:30:19;98529.00;;;0.56;69.42
60589;BME280;46421;48.610;9.334;2023-01-30T08:32:45;98524.31;;;0.61;69.87
60589;BME280;46421;48.610;9.334;2023-01-30T08:35:11;98504.03;;;0.65;69.16
60589;BME280;46421;48.610;9.334;2023-01-30T08:37:40;98512.72;;;0.78;69.28
60589;BME280;46421;48.610;9.334;2023-01-30T08:40:07;98526.66;;;1.04;68.02
60589;BME280;46421;48.610;9.334;2023-01-30T08:42:32;98508.97;;;0.95;68.07
60589;BME280;46421;48.610;9.334;2023-01-30T08:44:57;98524.69;;;1.21;67.95
60589;BME280;46421;48.610;9.334;2023-01-30T08:47:24;98510.75;;;1.07;67.79
60589;BME280;46421;48.610;9.334;2023-01-30T08:49:49;98521.13;;;1.35;67.91
60589;BME280;46421;48.610;9.334;2023-01-30T08:52:17;98519.75;;;1.16;68.39
60589;BME280;46421;48.610;9.334;2023-01-30T08:54:42;98528.88;;;1.10;68.43
60589;BME280;46421;48.610;9.334;2023-01-30T08:57:08;98527.09;;;0.98;69.18
60589;BME280;46421;48.610;9.334;2023-01-30T08:59:33;98519.97;;;1.00;70.14
60589;BME280;46421;48.610;9.334;2023-01-30T09:01:58;98510.53;;;1.10;69.35
60589;BME280;46421;48.610;9.334;2023-01-30T09:04:24;98492.53;;;1.19;69.52
60589;BME280;46421;48.610;9.334;2023-01-30T09:06:50;98490.00;;;1.30;70.27
60589;BME280;46421;48.610;9.334;2023-01-30T09:09:16;98484.91;;;1.66;69.11
60589;BME280;46421;48.610;9.334;2023-01-30T09:11:41;98484.69;;;1.56;69.07
60589;BME280;46421;48.610;9.334;2023-01-30T09:14:07;98467.78;;;1.73;69.00
60589;BME280;46421;48.610;9.334;2023-01-30T09:16:32;98440.75;;;1.97;67.87
60589;BME280;46421;48.610;9.334;2023-01-30T09:18:57;98417.69;;;1.89;68.50
60589;BME280;46421;48.610;9.334;2023-01-30T09:21:23;98438.78;;;2.12;67.42
60589;BME280;46421;48.610;9.334;2023-01-30T09:23:48;98440.88;;;3.57;63.36
60589;BME280;46421;48.610;9.334;2023-01-30T09:26:14;98452.22;;;3.69;62.29
60589;BME280;46421;48.610;9.334;2023-01-30T09:28:39;98452.28;;;5.99;55.00
60589;BME280;46421;48.610;9.334;2023-01-30T09:31:05;98435.41;;;7.82;49.90
60589;BME280;46421;48.610;9.334;2023-01-30T09:33:30;98423.94;;;6.60;51.20
60589;BME280;46421;48.610;9.334;2023-01-30T09:35:55;98428.22;;;6.71;52.16
60589;BME280;46421;48.610;9.334;2023-01-30T09:38:21;98424.38;;;6.55;52.26
60589;BME280;46421;48.610;9.334;2023-01-30T09:45:56;98421.59;;;4.33;58.74
60589;BME280;46421;48.610;9.334;2023-01-30T09:48:29;98431.50;;;4.41;59.92
60589;BME280;46421;48.610;9.334;2023-01-30T09:54:11;98423.28;;;3.58;63.77
60589;BME280;46421;48.610;9.334;2023-01-30T09:56:38;98421.75;;;3.44;64.04
60589;BME280;46421;48.610;9.334;2023-01-30T09:59:04;98421.56;;;3.02;65.43
60589;BME280;46421;48.610;9.334;2023-01-30T10:02:33;98422.03;;;3.07;66.44
60589;BME280;46421;48.610;9.334;2023-01-30T10:04:34;98439.69;;;2.82;67.23
60589;BME280;46421;48.610;9.334;2023-01-30T10:07:16;98418.56;;;2.83;67.36
60589;BME280;46421;48.610;9.334;2023-01-30T10:10:16;98393.97;;;2.84;67.45
60589;BME280;46421;48.610;9.334;2023-01-30T10:12:48;98387.28;;;2.80;68.62
60589;BME280;46421;48.610;9.334;2023-01-30T10:15:30;98401.50;;;2.89;68.87
60589;BME280;46421;48.610;9.334;2023-01-30T10:25:48;98364.81;;;3.33;67.72
60589;BME280;46421;48.610;9.334;2023-01-30T10:28:21;98364.00;;;3.65;65.91
60589;BME280;46421;48.610;9.334;2023-01-30T10:30:51;98374.78;;;4.37;64.64
60589;BME280;46421;48.610;9.334;2023-01-30T10:33:32;98366.09;;;5.49;60.18
60589;BME280;46421;48.610;9.334;2023-01-30T10:36:06;98390.34;;;4.40;63.29
60589;BME280;46421;48.610;9.334;2023-01-30T10:38:40;98377.00;;;3.67;65.73
60589;BME280;46421;48.610;9.334;2023-01-30T10:41:30;98358.34;;;3.37;68.38
60589;BME280;46421;48.610;9.334;2023-01-30T10:44:02;98380.38;;;3.13;69.40
60589;BME280;46421;48.610;9.334;2023-01-30T10:52:32;98359.50;;;2.78;71.64
60589;BME280;46421;48.610;9.334;2023-01-30T10:55:14;98346.69;;;2.84;72.02
60589;BME280;46421;48.610;9.334;2023-01-30T10:57:53;98350.06;;;2.98;71.88
60589;BME280;46421;48.610;9.334;2023-01-30T11:06:00;98358.72;;;3.21;71.43
60589;BME280;46421;48.610;9.334;2023-01-30T11:08:28;98358.50;;;3.24;71.33
60589;BME280;46421;48.610;9.334;2023-01-30T11:10:55;98352.63;;;3.32;71.01
60589;BME280;46421;48.610;9.334;2023-01-30T11:13:26;98357.28;;;3.40;71.44
60589;BME280;46421;48.610;9.334;2023-01-30T11:15:59;98349.63;;;3.37;71.63
60589;BME280;46421;48.610;9.334;2023-01-30T11:18:28;98349.13;;;3.43;70.93
60589;BME280;46421;48.610;9.334;2023-01-30T11:21:05;98354.56;;;3.30;72.05
60589;BME280;46421;48.610;9.334;2023-01-30T11:23:40;98351.19;;;3.28;72.39
60589;BME280;46421;48.610;9.334;2023-01-30T11:26:06;98318.00;;;3.15;73.56
60589;BME280;46421;48.610;9.334;2023-01-30T11:28:39;98331.72;;;3.30;73.01
60589;BME280;46421;48.610;9.334;2023-01-30T11:31:12;98328.56;;;3.48;73.13
60589;BME280;46421;48.610;9.334;2023-01-30T11:33:40;98323.56;;;3.45;72.91
60589;BME280;46421;48.610;9.334;2023-01-30T11:36:23;98329.25;;;3.50;72.80
60589;BME280;46421;48.610;9.334;2023-01-30T11:41:22;98338.50;;;3.44;73.72
60589;BME280;46421;48.610;9.334;2023-01-30T11:43:48;98326.19;;;3.45;73.54
60589;BME280;46421;48.610;9.334;2023-01-30T11:46:18;98338.25;;;3.47;73.05
60589;BME280;46421;48.610;9.334;2023-01-30T11:48:54;98352.69;;;3.53;74.17
60589;BME280;46421;48.610;9.334;2023-01-30T11:51:24;98334.06;;;3.45;73.35
60589;BME280;46421;48.610;9.334;2023-01-30T11:53:53;98343.41;;;3.38;72.84
60589;BME280;46421;48.610;9.334;2023-01-30T11:59:02;98341.16;;;3.33;72.82
60589;BME280;46421;48.610;9.334;2023-01-30T12:01:31;98348.44;;;3.29;73.26
60589;BME280;46421;48.610;9.334;2023-01-30T12:03:58;98346.41;;;3.33;72.88
60589;BME280;46421;48.610;9.334;2023-01-30T12:06:30;98348.00;;;3.24;75.51
60589;BME280;46421;48.610;9.334;2023-01-30T12:08:56;98343.31;;;3.28;75.75
60589;BME280;46421;48.610;9.334;2023-01-30T12:11:42;98348.00;;;3.24;76.97
60589;BME280;46421;48.610;9.334;2023-01-30T12:19:24;98320.25;;;3.31;77.22
60589;BME280;46421;48.610;9.334;2023-01-30T12:22:19;98320.47;;;3.40;75.60
60589;BME280;46421;48.610;9.334;2023-01-30T12:27:45;98317.84;;;3.40;76.65
60589;BME280;46421;48.610;9.334;2023-01-30T12:30:32;98320.47;;;3.40;77.32
60589;BME280;46421;48.610;9.334;2023-01-30T12:33:05;98307.63;;;3.25;76.64
60589;BME280;46421;48.610;9.334;2023-01-30T12:38:23;98318.44;;;3.32;78.25
60589;BME280;46421;48.610;9.334;2023-01-30T12:46:59;98311.84;;;3.05;78.95
60589;BME280;46421;48.610;9.334;2023-01-30T12:49:38;98316.00;;;3.08;79.23
60589;BME280;46421;48.610;9.334;2023-01-30T12:55:31;98316.97;;;3.07;77.94
60589;BME280;46421;48.610;9.334;2023-01-30T13:03:37;98335.09;;;3.21;78.18
60589;BME280;46421;48.610;9.334;2023-01-30T13:09:19;98344.03;;;3.19;79.48
60589;BME280;46421;48.610;9.334;2023-01-30T13:12:01;98346.53;;;3.20;78.02
60589;BME280;46421;48.610;9.334;2023-01-30T13:20:03;98364.47;;;3.15;80.95
60589;BME280;46421;48.610;9.334;2023-01-30T13:25:28;98350.03;;;2.87;84.89
60589;BME280;46421;48.610;9.334;2023-01-30T13:28:00;98365.91;;;2.74;86.65
60589;BME280;46421;48.610;9.334;2023-01-30T13:30:28;98345.16;;;2.59;85.99
60589;BME280;46421;48.610;9.334;2023-01-30T13:33:01;98360.66;;;2.51;86.83
60589;BME280;46421;48.610;9.334;2023-01-30T13:35:32;98350.03;;;2.41;87.56
60589;BME280;46421;48.610;9.334;2023-01-30T13:37:59;98371.03;;;2.41;87.63
60589;BME280;46421;48.610;9.334;2023-01-30T13:40:31;98378.16;;;2.39;89.56
60589;BME280;46421;48.610;9.334;2023-01-30T13:43:22;98388.91;;;2.36;88.21
60589;BME280;46421;48.610;9.334;2023-01-30T13:45:51;98375.50;;;2.16;90.50
60589;BME280;46421;48.610;9.334;2023-01-30T13:54:16;98384.47;;;2.25;90.92
60589;BME280;46421;48.610;9.334;2023-01-30T14:00:25;98371.44;;;2.24;90.24
60589;BME280;46421;48.610;9.334;2023-01-30T14:11:02;98402.31;;;2.09;94.68
60589;BME280;46421;48.610;9.334;2023-01-30T14:13:28;98420.38;;;2.00;95.04
60589;BME280;46421;48.610;9.334;2023-01-30T14:15:56;98409.38;;;1.95;96.60
60589;BME280;46421;48.610;9.334;2023-01-30T14:18:25;98404.09;;;1.84;97.26
60589;BME280;46421;48.610;9.334;2023-01-30T14:21:20;98416.25;;;1.85;97.80
60589;BME280;46421;48.610;9.334;2023-01-30T14:23:59;98413.13;;;1.80;97.94
60589;BME280;46421;48.610;9.334;2023-01-30T14:45:51;98454.44;;;1.52;100.00
60589;BME280;46421;48.610;9.334;2023-01-30T14:51:10;98475.06;;;1.56;100.00
60589;BME280;46421;48.610;9.334;2023-01-30T14:56:49;98483.75;;;1.57;100.00
60589;BME280;46421;48.610;9.334;2023-01-30T15:02:05;98480.53;;;1.53;100.00
60589;BME280;46421;48.610;9.334;2023-01-30T15:05:00;98476.00;;;1.55;100.00
60589;BME280;46421;48.610;9.334;2023-01-30T15:07:37;98482.84;;;1.45;100.00
60589;BME280;46421;48.610;9.334;2023-01-30T15:18:44;98493.75;;;1.52;100.00
60589;BME280;46421;48.610;9.334;2023-01-30T15:21:37;98501.81;;;1.49;100.00
60589;BME280;46421;48.610;9.334;2023-01-30T15:24:45;98518.78;;;1.56;100.00
60589;BME280;46421;48.610;9.334;2023-01-30T15:27:31;98512.09;;;1.52;100.00
60589;BME280;46421;48.610;9.334;2023-01-30T15:32:31;98512.19;;;1.63;100.00
60589;BME280;46421;48.610;9.334;2023-01-30T15:42:46;98527.69;;;1.53;100.00
60589;BME280;46421;48.610;9.334;2023-01-30T15:45:43;98534.50;;;1.56;99.92